Terminal Aerodrome Forecast
Issued by NWS

Home | Current Version | Previous Version | Text Only | Print | Product List | Glossary On
Versions: 1 2 3 4 5 6 7 8 9 10 11 12 13 14 15 16 17 18 19 20 21 22
000
FTUS45 KREV 040500
TAFCXP
TAF
KCXP 040520Z 0406/0506 27008KT P6SM SCT140
     FM040800 VRB04KT P6SM SCT250
     FM042200 26012G19KT P6SM SCT120
     FM050300 27005KT P6SM FEW120=

USA.gov is the U.S. government's official web portal to all federal, state and local government web resources and services.